Time;durP1;ratioP1;P1;durP2;ratioP2;P2;SDS_P1;SDS_P2;PMS_P1;PMS_P2;Temp;Humidity;BMP_temperature;BMP_pressure;BME280_temperature;BME280_humidity;BME280_pressure;Samples;Min_cycle;Max_cycle;Signal;HPM_P1;HPM_P2
2022/10/06 00:01:12;;;;;;;199.77;83.53;;;15.30;99.90;;;;;;5042172;28;20212;-50
2022/10/06 00:03:40;;;;;;;187.13;87.97;;;15.40;99.90;;;;;;5048154;28;20260;-50
2022/10/06 00:06:11;;;;;;;181.00;87.40;;;15.40;99.90;;;;;;5048764;28;20600;-51
2022/10/06 00:08:40;;;;;;;260.70;143.65;;;15.30;99.90;;;;;;5048367;28;20209;-51
2022/10/06 00:11:09;;;;;;;282.97;132.23;;;15.40;99.90;;;;;;5048752;28;20212;-51
2022/10/06 00:13:38;;;;;;;209.82;90.13;;;15.40;99.90;;;;;;5048034;28;20227;-50
2022/10/06 00:16:11;;;;;;;460.17;238.30;;;15.40;99.90;;;;;;5048832;28;20589;-51
2022/10/06 00:18:39;;;;;;;239.07;117.47;;;15.30;99.90;;;;;;5049195;28;20236;-50
2022/10/06 00:21:07;;;;;;;262.67;117.57;;;15.40;99.90;;;;;;5045590;28;20237;-51
2022/10/06 00:23:35;;;;;;;210.73;101.15;;;15.40;99.90;;;;;;5045078;28;20320;-50
2022/10/06 00:26:04;;;;;;;401.90;200.73;;;15.40;99.90;;;;;;5048281;28;20651;-51
2022/10/06 00:28:32;;;;;;;372.92;207.82;;;15.40;99.90;;;;;;5049218;28;20228;-51
2022/10/06 00:31:01;;;;;;;339.67;169.77;;;15.40;99.90;;;;;;5048401;28;20309;-50
2022/10/06 00:33:31;;;;;;;139.40;60.03;;;15.40;99.90;;;;;;5046862;28;20267;-52
2022/10/06 00:35:59;;;;;;;165.63;88.88;;;15.30;99.90;;;;;;5048617;28;20257;-51
2022/10/06 00:38:28;;;;;;;326.25;178.30;;;15.30;99.90;;;;;;5043916;28;20214;-51
2022/10/06 00:40:57;;;;;;;139.60;72.28;;;15.40;99.90;;;;;;5050775;28;20659;-51
2022/10/06 00:43:43;;;;;;;286.53;114.37;;;15.30;99.90;;;;;;5052073;28;20260;-51
2022/10/06 00:46:16;;;;;;;178.50;61.37;;;15.30;99.90;;;;;;5049694;28;20289;-50
2022/10/06 00:48:50;;;;;;;230.93;100.50;;;15.30;99.90;;;;;;5051489;28;20244;-51
2022/10/06 00:51:18;;;;;;;249.00;93.00;;;15.30;99.90;;;;;;5048779;28;20285;-50
2022/10/06 00:53:46;;;;;;;344.13;156.82;;;15.30;99.90;;;;;;5051699;28;20312;-51
2022/10/06 00:56:15;;;;;;;173.18;77.18;;;15.40;99.90;;;;;;5051443;28;20225;-51
2022/10/06 00:58:43;;;;;;;310.38;140.88;;;15.40;99.90;;;;;;5051994;28;20308;-51
2022/10/06 01:01:12;;;;;;;635.53;265.08;;;15.40;99.90;;;;;;5052004;28;20209;-51
2022/10/06 01:03:46;;;;;;;825.15;328.27;;;15.50;99.90;;;;;;5051030;28;20244;-51
2022/10/06 01:06:15;;;;;;;1113.28;473.10;;;15.50;99.90;;;;;;5051960;28;20316;-51
2022/10/06 01:08:44;;;;;;;1134.75;483.77;;;15.50;99.90;;;;;;5042008;28;20206;-51
2022/10/06 01:11:13;;;;;;;727.85;266.63;;;15.40;99.90;;;;;;5051483;28;20941;-51
2022/10/06 01:13:43;;;;;;;290.38;129.00;;;15.40;99.90;;;;;;5051064;28;20237;-50
2022/10/06 01:16:19;;;;;;;256.92;134.10;;;15.30;99.90;;;;;;5051784;28;20503;-51
2022/10/06 01:18:48;;;;;;;296.27;163.82;;;15.20;99.90;;;;;;5052092;28;20220;-51
2022/10/06 01:21:26;;;;;;;233.80;117.13;;;15.10;99.90;;;;;;5051599;28;20312;-50
2022/10/06 01:23:57;;;;;;;532.05;254.63;;;15.10;99.90;;;;;;5051053;28;20225;-51
2022/10/06 01:26:27;;;;;;;441.60;186.55;;;15.20;99.90;;;;;;5051489;28;20544;-51
2022/10/06 01:28:55;;;;;;;468.70;215.63;;;15.10;99.90;;;;;;5050926;28;20201;-50
2022/10/06 01:31:23;;;;;;;406.58;182.82;;;15.00;99.90;;;;;;5051369;28;20935;-50
2022/10/06 01:33:52;;;;;;;258.20;125.30;;;15.00;99.90;;;;;;5050275;28;20245;-50
2022/10/06 01:36:21;;;;;;;642.15;270.75;;;15.00;99.90;;;;;;5049451;28;20239;-51
2022/10/06 01:38:49;;;;;;;234.43;101.15;;;15.00;99.90;;;;;;5059089;28;20217;-51
2022/10/06 01:41:18;;;;;;;246.88;105.85;;;14.90;99.90;;;;;;5058014;28;20749;-51
2022/10/06 01:43:46;;;;;;;168.52;81.03;;;14.90;99.90;;;;;;5050373;28;20233;-51
2022/10/06 01:46:14;;;;;;;143.60;78.07;;;14.90;99.90;;;;;;5051229;28;20688;-50
2022/10/06 01:48:43;;;;;;;294.48;150.23;;;14.80;99.90;;;;;;5050521;28;20289;-50
2022/10/06 01:51:14;;;;;;;201.87;102.27;;;14.80;99.90;;;;;;5051462;28;20304;-51
2022/10/06 01:53:43;;;;;;;242.43;110.97;;;14.80;99.90;;;;;;5050170;28;20657;-51
2022/10/06 01:56:11;;;;;;;253.53;112.63;;;14.80;99.90;;;;;;5050898;28;20210;-51
2022/10/06 01:58:40;;;;;;;249.60;104.87;;;14.80;99.90;;;;;;5050852;28;20198;-51
2022/10/06 02:01:09;;;;;;;399.80;183.27;;;14.80;99.90;;;;;;5050427;28;20205;-51
2022/10/06 02:03:39;;;;;;;309.75;164.98;;;14.70;99.90;;;;;;5050031;28;20217;-51
2022/10/06 02:06:08;;;;;;;204.77;83.60;;;14.70;99.90;;;;;;5050698;28;20332;-50
2022/10/06 02:08:36;;;;;;;283.83;137.73;;;14.80;99.90;;;;;;5050776;28;20289;-51
2022/10/06 02:11:07;;;;;;;523.70;230.20;;;14.70;99.90;;;;;;5043706;28;20214;-51
2022/10/06 02:13:36;;;;;;;408.97;183.70;;;14.60;99.90;;;;;;5048816;28;20702;-51
2022/10/06 02:16:07;;;;;;;421.27;185.70;;;14.60;99.90;;;;;;5049904;28;20678;-51
2022/10/06 02:18:35;;;;;;;249.53;109.67;;;14.40;99.90;;;;;;5049985;28;20222;-51
2022/10/06 02:21:04;;;;;;;251.07;123.67;;;14.30;99.90;;;;;;5050128;28;20296;-50
2022/10/06 02:23:33;;;;;;;265.33;129.83;;;14.20;99.90;;;;;;5049135;28;20314;-51
2022/10/06 02:26:01;;;;;;;122.15;61.05;;;14.20;99.90;;;;;;5049651;28;20796;-50
2022/10/06 02:28:30;;;;;;;248.60;113.63;;;14.20;99.90;;;;;;5050468;28;20209;-51
2022/10/06 02:31:03;;;;;;;182.40;90.27;;;14.10;99.90;;;;;;5050190;28;20288;-51
2022/10/06 02:33:33;;;;;;;647.17;291.80;;;14.10;99.90;;;;;;5049676;28;20281;-51
2022/10/06 02:36:01;;;;;;;113.57;58.70;;;14.10;99.90;;;;;;5050388;28;20241;-51
2022/10/06 02:38:31;;;;;;;179.63;105.17;;;14.10;99.90;;;;;;5048800;28;20316;-51
2022/10/06 02:41:00;;;;;;;128.20;57.07;;;14.10;99.90;;;;;;5049741;28;20206;-51
2022/10/06 02:43:30;;;;;;;134.57;66.00;;;14.00;99.90;;;;;;5049192;28;20260;-51
2022/10/06 02:46:00;;;;;;;131.83;74.20;;;14.00;99.90;;;;;;5050188;28;20206;-50
2022/10/06 02:48:28;;;;;;;301.63;148.03;;;14.00;99.90;;;;;;5043953;28;20305;-50
2022/10/06 02:51:00;;;;;;;272.17;150.07;;;14.00;99.90;;;;;;5050220;28;20229;-51
2022/10/06 02:53:28;;;;;;;222.97;121.57;;;13.90;99.90;;;;;;5049583;28;20724;-51
2022/10/06 02:56:00;;;;;;;117.27;57.40;;;13.90;99.90;;;;;;5049294;28;20212;-51
2022/10/06 02:58:29;;;;;;;104.20;48.50;;;13.90;99.90;;;;;;5049861;28;20312;-51
2022/10/06 03:01:02;;;;;;;54.10;21.17;;;13.90;99.90;;;;;;5049059;28;20213;-51
2022/10/06 03:03:30;;;;;;;106.30;61.97;;;13.90;99.90;;;;;;5049212;28;20776;-51
2022/10/06 03:06:01;;;;;;;244.73;141.97;;;13.90;99.90;;;;;;5049380;28;20296;-50
2022/10/06 03:08:29;;;;;;;133.83;75.40;;;13.80;99.90;;;;;;5049830;28;20196;-51
2022/10/06 03:11:01;;;;;;;141.97;85.33;;;13.80;99.90;;;;;;5049199;28;20206;-50
2022/10/06 03:13:30;;;;;;;110.63;55.70;;;13.80;99.90;;;;;;5048538;28;20655;-51
2022/10/06 03:15:58;;;;;;;144.20;83.67;;;13.80;99.90;;;;;;5049319;28;20696;-51
2022/10/06 03:18:26;;;;;;;139.03;70.57;;;13.80;99.90;;;;;;5049410;28;20236;-50
2022/10/06 03:21:01;;;;;;;173.17;83.30;;;13.80;99.90;;;;;;5044305;28;20260;-51
2022/10/06 03:23:29;;;;;;;71.97;47.00;;;13.80;99.90;;;;;;5044477;28;20309;-51
2022/10/06 03:25:57;;;;;;;234.60;151.00;;;13.70;99.90;;;;;;5044773;28;20241;-50
2022/10/06 03:28:25;;;;;;;319.13;206.33;;;13.70;99.90;;;;;;5049445;28;20308;-51
2022/10/06 03:30:54;;;;;;;220.33;125.07;;;13.70;99.90;;;;;;5049574;28;20209;-50
2022/10/06 03:33:22;;;;;;;210.00;120.93;;;13.60;99.90;;;;;;5047671;28;20316;-51
2022/10/06 03:35:59;;;;;;;235.13;152.87;;;13.50;99.90;;;;;;5049409;28;20296;-51
2022/10/06 03:38:29;;;;;;;44.07;30.33;;;13.30;99.90;;;;;;5049158;28;20320;-51
2022/10/06 03:41:09;;;;;;;41.83;18.53;;;13.20;99.90;;;;;;5049036;28;20205;-51
2022/10/06 03:43:38;;;;;;;169.57;96.67;;;13.20;99.90;;;;;;5048772;28;20316;-50
2022/10/06 03:46:07;;;;;;;312.70;231.03;;;13.10;99.90;;;;;;5049130;28;20292;-51
2022/10/06 03:48:36;;;;;;;53.20;34.13;;;13.10;99.90;;;;;;5049077;28;20289;-51
2022/10/06 03:51:06;;;;;;;173.47;123.90;;;13.00;99.90;;;;;;5036883;28;20707;-51
2022/10/06 03:53:36;;;;;;;123.57;87.27;;;13.00;99.90;;;;;;5048632;28;20225;-51
2022/10/06 03:56:07;;;;;;;28.27;14.17;;;12.90;99.90;;;;;;5049112;28;20209;-51
2022/10/06 03:58:38;;;;;;;21.50;13.07;;;12.80;99.90;;;;;;5049358;28;20758;-51
2022/10/06 04:01:08;;;;;;;64.53;41.17;;;12.70;99.90;;;;;;5048720;28;20201;-51
2022/10/06 04:03:37;;;;;;;101.57;58.60;;;12.70;99.90;;;;;;5048817;28;20316;-51
2022/10/06 04:06:06;;;;;;;120.50;78.53;;;12.60;99.90;;;;;;5048612;28;20209;-50
2022/10/06 04:08:36;;;;;;;88.13;39.73;;;12.60;99.90;;;;;;5048670;28;20579;-51
2022/10/06 04:11:08;;;;;;;180.13;106.60;;;12.60;99.90;;;;;;5049729;28;20296;-50
2022/10/06 04:13:37;;;;;;;122.67;92.27;;;12.70;99.90;;;;;;5052230;28;20899;-51
2022/10/06 04:16:15;;;;;;;20.53;11.47;;;12.70;99.90;;;;;;5052897;28;20762;-50
2022/10/06 04:18:45;;;;;;;125.70;64.63;;;12.70;99.90;;;;;;5052356;28;20233;-50
2022/10/06 04:21:13;;;;;;;149.90;102.00;;;12.60;99.90;;;;;;5043978;28;20300;-51
2022/10/06 04:23:43;;;;;;;21.97;12.77;;;12.40;99.90;;;;;;5049129;28;20316;-50
2022/10/06 04:26:13;;;;;;;97.57;61.40;;;12.40;99.90;;;;;;5052693;28;20209;-50
2022/10/06 04:28:43;;;;;;;15.83;10.17;;;12.30;99.90;;;;;;5052619;28;20208;-51
2022/10/06 04:31:14;;;;;;;107.47;79.63;;;12.20;99.90;;;;;;5052772;28;20904;-51
2022/10/06 04:33:44;;;;;;;129.10;84.23;;;12.10;99.90;;;;;;5047099;28;20229;-50
2022/10/06 04:36:14;;;;;;;281.90;202.77;;;12.10;99.90;;;;;;5052434;28;20305;-50
2022/10/06 04:38:44;;;;;;;100.83;63.83;;;12.10;99.90;;;;;;5052285;28;20303;-51
2022/10/06 04:41:14;;;;;;;271.93;189.23;;;12.10;99.90;;;;;;5051946;28;20325;-51
2022/10/06 04:43:42;;;;;;;168.47;117.83;;;12.20;99.90;;;;;;5052017;28;20316;-51
2022/10/06 04:46:10;;;;;;;149.63;106.93;;;12.20;99.90;;;;;;5051292;28;20300;-51
2022/10/06 04:48:59;;;;;;;253.23;159.90;;;12.10;99.90;;;;;;5043708;28;20558;-51
2022/10/06 04:51:28;;;;;;;103.70;69.67;;;12.10;99.90;;;;;;5050043;28;20224;-50
2022/10/06 04:53:57;;;;;;;90.37;64.13;;;12.00;99.90;;;;;;5052004;28;20620;-50
2022/10/06 04:56:28;;;;;;;54.63;27.20;;;12.00;99.90;;;;;;5051779;28;20663;-50
2022/10/06 04:58:57;;;;;;;195.27;125.70;;;12.10;99.90;;;;;;5052429;28;20328;-51
2022/10/06 05:01:27;;;;;;;67.87;53.87;;;12.00;99.90;;;;;;5047478;28;20246;-50
2022/10/06 05:03:57;;;;;;;8.60;5.60;;;11.90;99.90;;;;;;5051445;28;20261;-51
2022/10/06 05:06:28;;;;;;;20.20;11.63;;;11.90;99.90;;;;;;5052402;28;20301;-50
2022/10/06 05:08:59;;;;;;;58.93;32.47;;;11.80;99.90;;;;;;5052225;28;20255;-51
2022/10/06 05:11:28;;;;;;;111.97;63.33;;;11.70;99.90;;;;;;5052066;28;20213;-50
2022/10/06 05:13:57;;;;;;;45.83;26.70;;;11.70;99.90;;;;;;5051802;28;20316;-51
2022/10/06 05:16:27;;;;;;;193.10;114.37;;;11.70;99.90;;;;;;5051694;28;20213;-51
2022/10/06 05:18:56;;;;;;;40.33;25.53;;;11.70;99.90;;;;;;5043822;28;20271;-50
2022/10/06 05:21:26;;;;;;;155.20;102.83;;;11.70;99.90;;;;;;5052175;28;20296;-51
2022/10/06 05:23:54;;;;;;;40.17;25.80;;;11.80;99.90;;;;;;5050138;28;20316;-51
2022/10/06 05:26:26;;;;;;;91.93;57.83;;;11.80;99.90;;;;;;5051496;28;20237;-51
2022/10/06 05:28:54;;;;;;;107.07;67.10;;;11.80;99.90;;;;;;5051097;28;20285;-50
2022/10/06 05:31:25;;;;;;;182.80;102.43;;;11.70;99.90;;;;;;5051672;28;20296;-51
2022/10/06 05:33:54;;;;;;;114.97;60.23;;;11.80;99.90;;;;;;5049969;28;20236;-51
2022/10/06 05:36:24;;;;;;;82.10;45.83;;;11.80;99.90;;;;;;5051815;28;20600;-51
2022/10/06 05:38:52;;;;;;;126.90;72.07;;;11.80;99.90;;;;;;5050030;28;20597;-51
2022/10/06 05:41:23;;;;;;;119.30;62.97;;;11.80;99.90;;;;;;5049493;28;20205;-51
2022/10/06 05:43:52;;;;;;;163.77;107.93;;;11.80;99.90;;;;;;5050792;28;20232;-49
2022/10/06 05:46:23;;;;;;;80.90;45.53;;;11.90;99.90;;;;;;5051301;28;20691;-51
2022/10/06 05:48:54;;;;;;;114.80;56.30;;;11.90;99.90;;;;;;5050969;28;20756;-50
2022/10/06 05:51:24;;;;;;;191.93;120.90;;;11.90;99.90;;;;;;5051150;28;20697;-51
2022/10/06 05:53:58;;;;;;;35.70;13.87;;;12.00;99.90;;;;;;5050809;28;20791;-50
2022/10/06 05:56:28;;;;;;;124.10;80.57;;;12.00;99.90;;;;;;5050456;28;20214;-51
2022/10/06 05:58:58;;;;;;;72.93;37.50;;;12.00;99.90;;;;;;5051235;28;20316;-51
2022/10/06 06:01:28;;;;;;;54.07;27.57;;;12.00;99.90;;;;;;5051007;28;20698;-51
2022/10/06 06:03:58;;;;;;;60.40;38.87;;;12.00;99.90;;;;;;5049341;28;20271;-51
2022/10/06 06:06:28;;;;;;;140.23;115.60;;;11.90;99.90;;;;;;5051225;28;20231;-51
2022/10/06 06:08:58;;;;;;;199.53;141.53;;;11.90;99.90;;;;;;5051085;28;20709;-51
2022/10/06 06:11:30;;;;;;;80.60;49.63;;;11.80;99.90;;;;;;5051199;28;20216;-51
2022/10/06 06:13:59;;;;;;;115.10;71.63;;;11.80;99.90;;;;;;5050846;28;20225;-51
2022/10/06 06:16:27;;;;;;;148.43;87.73;;;11.80;99.90;;;;;;5050594;28;20210;-51
2022/10/06 06:18:56;;;;;;;137.10;103.13;;;11.70;99.90;;;;;;5050118;28;20569;-50
2022/10/06 06:21:25;;;;;;;273.80;206.53;;;11.70;99.90;;;;;;5048015;28;20293;-51
2022/10/06 06:23:53;;;;;;;79.23;50.33;;;11.70;99.90;;;;;;5049295;28;20316;-51
2022/10/06 06:26:23;;;;;;;51.23;29.93;;;11.70;99.90;;;;;;5050783;28;20220;-51
2022/10/06 06:28:54;;;;;;;74.50;47.40;;;11.80;99.90;;;;;;5050254;28;20636;-51
2022/10/06 06:31:25;;;;;;;285.23;174.40;;;12.00;99.90;;;;;;5050700;28;20210;-51
2022/10/06 06:33:55;;;;;;;377.93;218.37;;;12.30;99.90;;;;;;5049381;28;20234;-51
2022/10/06 06:36:25;;;;;;;516.10;389.80;;;12.60;99.90;;;;;;5050711;28;20288;-50
2022/10/06 06:38:55;;;;;;;497.63;313.07;;;12.70;99.90;;;;;;5050047;28;20233;-50
2022/10/06 06:41:25;;;;;;;562.13;403.63;;;12.90;99.90;;;;;;5044259;28;20289;-50
2022/10/06 06:43:54;;;;;;;460.58;287.33;;;13.10;99.90;;;;;;5042358;28;20724;-50
2022/10/06 06:46:25;;;;;;;491.47;304.43;;;13.10;99.90;;;;;;5041763;28;20292;-51
2022/10/06 06:48:54;;;;;;;463.47;283.97;;;13.00;99.90;;;;;;5049878;28;20201;-51
2022/10/06 06:51:23;;;;;;;409.03;302.03;;;12.90;99.90;;;;;;5048083;28;20293;-51
2022/10/06 06:53:51;;;;;;;404.80;272.83;;;13.00;99.90;;;;;;5049256;28;20668;-51
2022/10/06 06:56:21;;;;;;;478.70;322.37;;;13.10;99.90;;;;;;5049716;28;20886;-50
2022/10/06 06:58:49;;;;;;;550.83;342.67;;;13.20;99.90;;;;;;5050063;28;20206;-51
2022/10/06 07:01:21;;;;;;;474.63;292.80;;;13.30;99.90;;;;;;5050025;28;20310;-51
2022/10/06 07:03:53;;;;;;;501.00;369.40;;;13.60;99.90;;;;;;5049110;28;20722;-51
2022/10/06 07:06:27;;;;;;;565.88;387.30;;;13.70;99.90;;;;;;5044385;28;20205;-51
2022/10/06 07:08:57;;;;;;;639.72;433.17;;;13.80;99.90;;;;;;5036198;28;20214;-51
2022/10/06 07:11:27;;;;;;;565.38;452.60;;;14.00;99.90;;;;;;5049064;28;20205;-51
2022/10/06 07:13:59;;;;;;;589.17;405.17;;;14.10;99.90;;;;;;5048318;28;20249;-51
2022/10/06 07:25:10;;;;;;;631.53;455.23;;;14.50;99.90;;;;;;5041040;28;20213;-51
2022/10/06 07:27:41;;;;;;;504.50;366.92;;;14.60;99.90;;;;;;5046701;28;20670;-51
2022/10/06 07:30:12;;;;;;;583.35;363.33;;;14.80;99.90;;;;;;5045401;28;20205;-52
2022/10/06 07:32:41;;;;;;;624.42;357.63;;;14.90;99.90;;;;;;5048045;28;20308;-51
2022/10/06 07:35:09;;;;;;;632.53;394.25;;;15.00;99.90;;;;;;5049320;28;20213;-51
2022/10/06 07:37:38;;;;;;;563.95;381.65;;;15.00;99.90;;;;;;5049271;28;20304;-51
2022/10/06 07:40:07;;;;;;;617.83;406.70;;;15.10;99.90;;;;;;5039755;28;20228;-51
2022/10/06 07:42:47;;;;;;;494.20;300.48;;;15.10;99.90;;;;;;5048714;28;20225;-51
2022/10/06 07:48:04;;;;;;;402.25;238.00;;;14.80;99.90;;;;;;5040962;28;20831;-51
2022/10/06 07:50:33;;;;;;;361.73;210.88;;;14.80;99.90;;;;;;5048661;28;20205;-51
2022/10/06 07:53:03;;;;;;;362.95;214.60;;;14.90;99.90;;;;;;5048096;28;20825;-50
2022/10/06 07:55:32;;;;;;;303.13;182.80;;;14.80;99.90;;;;;;5045055;28;20212;-51
2022/10/06 07:58:00;;;;;;;288.73;160.60;;;14.80;99.90;;;;;;5046073;28;20296;-51
2022/10/06 08:00:29;;;;;;;282.50;181.30;;;14.90;99.90;;;;;;5048715;28;20300;-51
2022/10/06 08:02:57;;;;;;;535.45;246.48;;;15.00;99.90;;;;;;5047401;28;20605;-51
2022/10/06 08:05:27;;;;;;;554.72;310.77;;;15.00;99.90;;;;;;5048614;28;20209;-51
2022/10/06 08:07:57;;;;;;;451.80;236.15;;;15.00;99.90;;;;;;5048495;28;20296;-52
2022/10/06 08:10:25;;;;;;;286.87;182.67;;;15.20;99.90;;;;;;5048292;28;20636;-50
2022/10/06 08:12:53;;;;;;;584.70;309.80;;;15.10;99.90;;;;;;5048287;28;20225;-51
2022/10/06 08:15:21;;;;;;;386.87;241.57;;;15.20;99.90;;;;;;5048604;28;20313;-53
2022/10/06 08:17:52;;;;;;;472.30;263.23;;;15.30;99.90;;;;;;5039821;28;20210;-51
2022/10/06 08:20:23;;;;;;;359.77;214.97;;;15.30;99.90;;;;;;5046160;28;20771;-51
2022/10/06 08:22:52;;;;;;;621.58;317.92;;;15.30;99.90;;;;;;5048571;28;20312;-51
2022/10/06 08:25:20;;;;;;;308.70;207.30;;;15.40;99.90;;;;;;5047740;28;20302;-51
2022/10/06 08:27:48;;;;;;;328.57;181.17;;;15.40;99.90;;;;;;5048798;28;20683;-51
2022/10/06 08:30:26;;;;;;;270.92;158.68;;;15.60;99.90;;;;;;5047137;28;20202;-52
2022/10/06 08:32:54;;;;;;;717.55;381.15;;;15.70;99.90;;;;;;5045042;28;20801;-52
2022/10/06 08:35:22;;;;;;;354.10;230.93;;;15.70;99.90;;;;;;5040630;28;20248;-51
2022/10/06 08:37:51;;;;;;;327.15;163.23;;;15.80;99.90;;;;;;5048737;28;20320;-52
2022/10/06 08:40:20;;;;;;;418.63;246.80;;;15.80;99.90;;;;;;5047743;28;20269;-51
2022/10/06 08:42:51;;;;;;;360.05;235.75;;;15.80;99.90;;;;;;5048227;28;20264;-52
2022/10/06 08:45:23;;;;;;;265.83;175.82;;;15.90;99.90;;;;;;5048371;28;20289;-51
2022/10/06 08:48:01;;;;;;;468.43;259.30;;;15.90;99.90;;;;;;5032748;28;20639;-51
2022/10/06 08:50:36;;;;;;;487.77;274.65;;;15.70;99.90;;;;;;5037982;28;20263;-51
2022/10/06 08:53:12;;;;;;;383.90;240.88;;;15.80;99.90;;;;;;5047878;28;20225;-51
2022/10/06 08:55:48;;;;;;;568.42;340.30;;;15.90;99.90;;;;;;5047933;28;20252;-50
2022/10/06 08:58:30;;;;;;;300.27;214.35;;;16.00;99.90;;;;;;5048769;28;20587;-51
2022/10/06 09:01:12;;;;;;;331.15;219.40;;;15.90;99.90;;;;;;5052086;28;20228;-51
2022/10/06 09:03:44;;;;;;;378.57;299.77;;;15.70;99.90;;;;;;5051626;28;20233;-51
2022/10/06 09:06:26;;;;;;;287.88;193.13;;;15.70;99.90;;;;;;5051715;28;20876;-51
2022/10/06 09:08:58;;;;;;;327.38;203.43;;;15.60;99.90;;;;;;5052017;28;20573;-52
2022/10/06 09:11:49;;;;;;;230.00;172.52;;;15.60;99.90;;;;;;5051939;28;20284;-51
2022/10/06 09:14:23;;;;;;;216.30;130.32;;;15.40;99.90;;;;;;5041253;28;20264;-51
2022/10/06 09:16:56;;;;;;;265.40;236.05;;;15.40;99.90;;;;;;5051204;28;20209;-51
2022/10/06 09:19:34;;;;;;;310.95;190.60;;;15.50;99.90;;;;;;5051621;28;20236;-51
2022/10/06 09:22:04;;;;;;;298.90;181.13;;;15.50;99.90;;;;;;5045333;28;20313;-52
2022/10/06 09:24:37;;;;;;;399.45;216.77;;;15.60;99.90;;;;;;5036674;28;20911;-49
2022/10/06 09:27:18;;;;;;;394.77;221.18;;;15.70;99.90;;;;;;5048089;28;20205;-51
2022/10/06 09:29:47;;;;;;;389.98;234.07;;;15.80;99.90;;;;;;5052602;28;20607;-51
2022/10/06 09:32:16;;;;;;;430.25;216.35;;;16.00;99.90;;;;;;5052535;28;20268;-51
2022/10/06 09:34:49;;;;;;;397.83;265.67;;;16.20;99.90;;;;;;5051475;28;20248;-51
2022/10/06 09:37:17;;;;;;;493.73;292.77;;;16.10;99.90;;;;;;5051454;28;20244;-51
2022/10/06 09:39:48;;;;;;;459.33;248.82;;;16.10;99.90;;;;;;5050946;28;21046;-51
2022/10/06 09:42:21;;;;;;;383.20;183.75;;;16.00;99.90;;;;;;5050508;28;20253;-51
2022/10/06 09:44:58;;;;;;;601.63;379.45;;;15.90;99.90;;;;;;5051392;28;20753;-52
2022/10/06 09:47:38;;;;;;;405.60;284.85;;;15.90;99.90;;;;;;5051054;28;20296;-51
2022/10/06 09:50:19;;;;;;;456.33;295.40;;;15.70;99.90;;;;;;5051260;28;20288;-51
2022/10/06 09:53:03;;;;;;;888.80;485.63;;;15.70;99.90;;;;;;5050802;28;20252;-50
2022/10/06 09:55:40;;;;;;;446.98;260.70;;;15.80;99.90;;;;;;5050349;28;20240;-51
2022/10/06 09:58:32;;;;;;;400.65;231.07;;;15.70;99.90;;;;;;5050610;28;20674;-51
2022/10/06 10:01:03;;;;;;;305.27;210.10;;;15.70;99.90;;;;;;5050814;28;20249;-51
2022/10/06 10:03:44;;;;;;;303.73;224.85;;;15.70;99.90;;;;;;5038379;28;20594;-52
2022/10/06 10:06:33;;;;;;;250.18;131.55;;;15.80;99.90;;;;;;5050983;28;20971;-51
2022/10/06 10:09:29;;;;;;;469.88;258.77;;;15.80;99.90;;;;;;5050678;28;20291;-51
2022/10/06 10:14:50;;;;;;;380.73;279.35;;;15.80;99.90;;;;;;5050713;28;20690;-50
2022/10/06 10:17:22;;;;;;;300.65;184.07;;;15.80;99.90;;;;;;5050992;28;20297;-51
2022/10/06 10:19:52;;;;;;;366.48;200.10;;;15.80;99.90;;;;;;5048786;28;20292;-50
2022/10/06 10:22:23;;;;;;;394.90;238.63;;;15.90;99.90;;;;;;5050146;28;20240;-51
2022/10/06 10:25:05;;;;;;;259.42;185.98;;;15.80;99.90;;;;;;5049547;28;20292;-51
2022/10/06 10:27:39;;;;;;;388.75;288.30;;;15.70;99.90;;;;;;5050841;28;20290;-51
2022/10/06 10:30:11;;;;;;;337.10;233.75;;;15.60;99.90;;;;;;5038895;28;20251;-51
2022/10/06 10:32:51;;;;;;;328.38;216.95;;;15.70;99.90;;;;;;5050146;28;20232;-51
2022/10/06 10:35:25;;;;;;;427.85;238.23;;;15.70;99.90;;;;;;5049349;28;20205;-51
2022/10/06 10:37:59;;;;;;;336.92;259.13;;;15.80;99.90;;;;;;5050364;28;20221;-51
2022/10/06 10:40:32;;;;;;;375.77;217.40;;;15.80;99.90;;;;;;5050350;28;20292;-51
2022/10/06 10:43:13;;;;;;;360.80;199.07;;;15.70;99.90;;;;;;5036968;28;20233;-51
2022/10/06 10:45:46;;;;;;;356.48;227.48;;;15.80;99.90;;;;;;5050261;28;20244;-51
2022/10/06 10:48:21;;;;;;;361.45;242.02;;;15.80;99.90;;;;;;5043205;28;20292;-50
2022/10/06 10:50:54;;;;;;;463.98;295.58;;;15.90;99.90;;;;;;5041915;28;20216;-51
2022/10/06 10:53:29;;;;;;;313.83;185.13;;;16.00;99.90;;;;;;5037909;28;20312;-51
2022/10/06 10:55:59;;;;;;;409.17;253.00;;;16.00;99.90;;;;;;5049659;28;20296;-51
2022/10/06 10:58:31;;;;;;;385.30;250.85;;;16.00;99.90;;;;;;5050075;28;20686;-50
2022/10/06 11:01:08;;;;;;;342.58;239.70;;;16.00;99.90;;;;;;5050085;28;20220;-50
2022/10/06 11:03:36;;;;;;;387.23;233.80;;;16.00;99.90;;;;;;5037164;28;20721;-51
2022/10/06 11:06:35;;;;;;;404.13;295.58;;;16.00;99.90;;;;;;5049342;28;20297;-50
2022/10/06 11:09:08;;;;;;;287.80;181.43;;;16.00;99.90;;;;;;5041837;28;20264;-51
2022/10/06 11:11:49;;;;;;;345.33;238.90;;;16.00;99.90;;;;;;5048847;28;20293;-51
2022/10/06 11:14:30;;;;;;;266.92;190.32;;;16.00;99.90;;;;;;5049120;28;20694;-51
2022/10/06 11:17:07;;;;;;;306.23;186.23;;;16.10;99.90;;;;;;5038427;28;20206;-51
2022/10/06 11:19:45;;;;;;;534.47;330.67;;;16.10;99.90;;;;;;5048210;28;20583;-50
2022/10/06 11:22:18;;;;;;;434.75;265.92;;;16.10;99.90;;;;;;5032736;28;20228;-51
2022/10/06 11:25:00;;;;;;;403.30;258.90;;;16.10;99.90;;;;;;5048187;28;20209;-51
2022/10/06 11:27:40;;;;;;;394.92;246.02;;;16.10;99.90;;;;;;5049673;28;20216;-52
2022/10/06 11:30:14;;;;;;;326.50;214.45;;;16.10;99.90;;;;;;5042970;28;20213;-51
2022/10/06 11:32:57;;;;;;;412.17;282.95;;;16.10;99.90;;;;;;5047451;28;20224;-51
2022/10/06 11:35:28;;;;;;;384.08;242.13;;;16.10;99.90;;;;;;5048699;28;20309;-50
2022/10/06 11:38:01;;;;;;;305.67;216.70;;;16.20;99.90;;;;;;5048877;28;20308;-51
2022/10/06 11:40:41;;;;;;;346.52;228.23;;;16.10;99.90;;;;;;5048868;28;20238;-51
2022/10/06 11:43:17;;;;;;;460.65;299.23;;;16.20;99.90;;;;;;5047693;28;20283;-50
2022/10/06 11:45:58;;;;;;;355.70;256.60;;;16.20;99.90;;;;;;5047753;28;20205;-51
2022/10/06 11:48:29;;;;;;;336.98;224.07;;;16.20;99.90;;;;;;5049082;28;20205;-51
2022/10/06 11:51:28;;;;;;;326.48;211.45;;;16.20;99.90;;;;;;5039979;28;20202;-51
2022/10/06 11:53:56;;;;;;;287.17;182.50;;;16.20;99.90;;;;;;5048267;28;20229;-51
2022/10/06 11:56:39;;;;;;;337.10;209.55;;;16.30;99.90;;;;;;5047817;28;20210;-50
2022/10/06 11:59:25;;;;;;;256.35;163.35;;;16.30;99.90;;;;;;5048118;28;20248;-51
2022/10/06 12:01:56;;;;;;;334.13;227.85;;;16.30;99.90;;;;;;5035128;28;20225;-51
2022/10/06 12:04:28;;;;;;;374.45;266.25;;;16.30;99.90;;;;;;5047480;28;20352;-51
2022/10/06 12:07:01;;;;;;;558.30;376.77;;;16.40;99.90;;;;;;5048848;28;20220;-52
2022/10/06 12:09:48;;;;;;;326.35;229.07;;;16.40;99.90;;;;;;5048297;28;20895;-51
2022/10/06 12:12:46;;;;;;;445.92;277.92;;;16.40;99.90;;;;;;5047709;28;20201;-51
2022/10/06 12:16:10;;;;;;;285.80;162.32;;;16.40;99.90;;;;;;5037772;28;20201;-52
2022/10/06 12:19:10;;;;;;;357.83;251.55;;;16.40;99.90;;;;;;5042037;28;20217;-50
2022/10/06 12:21:47;;;;;;;598.30;338.48;;;16.40;99.90;;;;;;5048718;28;20205;-51
2022/10/06 12:24:29;;;;;;;318.63;182.20;;;16.50;99.90;;;;;;5047585;28;20258;-52
2022/10/06 12:27:19;;;;;;;382.10;238.63;;;16.50;99.90;;;;;;5045900;28;20280;-51
2022/10/06 12:29:57;;;;;;;367.45;267.45;;;16.40;99.90;;;;;;5044363;28;20237;-51
2022/10/06 12:32:41;;;;;;;372.77;271.33;;;16.40;99.90;;;;;;5045065;28;20222;-51
2022/10/06 12:35:23;;;;;;;436.92;267.85;;;16.40;99.90;;;;;;5051343;28;20296;-51
2022/10/06 12:37:54;;;;;;;356.58;232.50;;;16.40;99.90;;;;;;5052153;28;20221;-51
2022/10/06 12:40:55;;;;;;;423.38;317.95;;;16.40;99.90;;;;;;5051826;28;20622;-51
2022/10/06 12:43:56;;;;;;;458.98;275.25;;;16.40;99.90;;;;;;5041678;28;20233;-51
2022/10/06 12:46:45;;;;;;;431.98;284.30;;;16.40;99.90;;;;;;5051723;28;20244;-51
2022/10/06 12:49:35;;;;;;;374.92;200.07;;;16.40;99.90;;;;;;5051440;28;20225;-51
2022/10/06 12:52:17;;;;;;;256.48;190.45;;;16.40;99.90;;;;;;5051412;28;20205;-50